Jurij Lovše 33x0:30/0:30r row

4,333

Meters

16:30.0

Time

1:54.2

Pace

307

Calories

Rest Distance3,287
Rest Time16:30.0
Overall Distance7,620
Overall Time33:00.0
Average Watts235
Calories Per Hour1116
Stroke Rate28
Stroke Count471
Drag Factor81

August 24, 2026 07:28:00

Workout
RowErg

Workout Type
Interval:Time

Weight Class
Hwt

Verified
Yes

Entered
ErgData Android

Intervals

Time Meters Pace Watts Cal/Hr S/M
16:30.0 4,333 1:54.2 235 1116 28
0:30.0 117 2:08.2 166 840 26
0:30.0 125 2:00.0 203 1080 26
0:30.0 126 1:59.0 207 960 26
0:30.0 128 1:57.1 217 1080 26
0:30.0 127 1:58.1 212 1080 26
0:30.0 129 1:56.2 223 1080 28
0:30.0 130 1:55.3 228 1080 28
0:30.0 131 1:54.5 233 1080 28
0:30.0 133 1:52.7 244 1080 28
0:30.0 134 1:51.9 250 1200 28
0:30.0 132 1:53.6 239 1080 28
0:30.0 132 1:53.6 239 1200 28
0:30.0 133 1:52.7 244 1080 30
0:30.0 134 1:51.9 250 1200 30
0:30.0 135 1:51.1 255 1200 30
0:30.0 132 1:53.6 239 1080 28
0:30.0 129 1:56.2 223 1200 28
0:30.0 133 1:52.7 244 1080 30
0:30.0 133 1:52.7 244 1200 30
0:30.0 134 1:51.9 250 1080 30
0:30.0 134 1:51.9 250 1200 30
0:30.0 134 1:51.9 250 1200 30
0:30.0 133 1:52.7 244 1080 30
0:30.0 133 1:52.7 244 1200 30
0:30.0 133 1:52.7 244 1080 30
0:30.0 134 1:51.9 250 1200 28
0:30.0 133 1:52.7 244 1080 28
0:30.0 133 1:52.7 244 1200 30
0:30.0 134 1:51.9 250 1200 30
0:30.0 131 1:54.5 233 1080 28
0:30.0 134 1:51.9 250 1200 28
0:30.0 133 1:52.7 244 1080 30
0:30.0 129 1:56.2 223 1080 28
r3,287

Click on an interval to see the workout graph.

Click and drag on the graph to zoom in on a section.

Workout Graph

Loading data.